Russell, Ohio
Current Conditions -  °F | °C
As of 8:45 PM on Saturday 22 Nov 2014 (Local Time) from KCGF Reporting Station
Light Rain Light Rain  
Wind Chill: 42°   Ceiling: 6000
Heat Index: 48°   Visibility: 7mi
Dew Point: 27°   Wind: 17mph
Humidity: 43%   Direction: 190°S
Pressure: 30.02"   Gusts: 25mph
Location:  41.4688°N, 81.3252°W
Report Text: KCGF 230145Z 19015G22KT 7SM -RA SCT035 OVC060 09/M03 A3002
Loading
Personal Weather Stations






























Interactive Weather Map New forecast layout! Learn more

10-Day Weather Forecast

Advertisements
Track Severe Weather on mobile